メインページ
METAR-TAF:

METAR-TAF

空港 :

ストックホルム・アーランダ空港

ストックホルム・アーランダ, スウェーデン

緯度: 59-39N, 経度: 017-57E, 海抜: 38m

現時点の気象観測

当レポートは44分前の15:20(UTC)に作成
南/南西の風 9kt
気温 4°C
湿度 93%
気圧 1005 hPa
視程10km以上
高度3900ftの雲はほとんどない
高度5500ftの雲は散在している

METAR: ESSA 181520Z 20009KT 9999 FEW039 SCT055 04/03 Q1005 R01L/19//95 R08/19//95 R01R/19//95 TEMPO BKN008

時間: 17:04 (16:04 UTC)

予報

当レポートは4時間34分前の11:30(UTC)に作成
予報は18日の 12時(UTC)から 19日の 12時(UTC)まで有効
南/南西の風 10kt
視程: 9000m
高度600ftの曇り
確率 40%
18日の 12時(UTC)から 18日の 15時(UTC)まで
高度1000ftの千切れ雲あり
18日の 15時(UTC)から 18日の 18時(UTC)まで徐々に
高度1500ftの雲はほとんどない
高度2500ftの千切れ雲あり
確率 40%
18日の 19時(UTC)から 18日の 24時(UTC)まで
視程: 4000m
高度900ftの千切れ雲あり
高度2500ftの千切れ雲あり, 積乱雲.
にわか雨, 靄
18日の 23時(UTC)から 19日の 01時(UTC)まで徐々に
西の風 5kt

TAF: ESSA 181130Z 1812/1912 21010KT 9000 OVC006 PROB40 1812/1815 BKN010 BECMG 1815/1818 FEW015 BKN025 PROB40 1819/1824 4000 SHRA BR BKN009 BKN025CB BECMG 1823/1901 27005KT

4,000以上の空港の気象観測と天気予報(METAR報とTAF報)

利用可能な観測所は地図上に黄色い丸と赤い丸で示す。

丸の上にカーソルを重ねると観測所名を参照できる。

次にクリックすると気象観測と天気予報を参照できる。

マップの切り替え:黒色「×」印の緑ボタンをクリックして拡大、「-」印の緑ボタンをクリックして縮小、緑色の三角印をクリックして隣りの地図に切り替え


METAR-TAF: